sensor_id;sensor_type;location;lat;lon;timestamp;temperature;humidity
62464;SHT31;48512;48.552;9.380;2023-02-18T00:01:19;11.77;79.99
62464;SHT31;48512;48.552;9.380;2023-02-18T00:03:46;11.69;80.24
62464;SHT31;48512;48.552;9.380;2023-02-18T00:06:13;11.77;79.58
62464;SHT31;48512;48.552;9.380;2023-02-18T00:08:40;11.75;79.69
62464;SHT31;48512;48.552;9.380;2023-02-18T00:11:07;11.76;79.93
62464;SHT31;48512;48.552;9.380;2023-02-18T00:13:32;11.61;80.55
62464;SHT31;48512;48.552;9.380;2023-02-18T00:16:02;11.77;79.90
62464;SHT31;48512;48.552;9.380;2023-02-18T00:18:29;11.90;79.26
62464;SHT31;48512;48.552;9.380;2023-02-18T00:20:54;11.76;80.02
62464;SHT31;48512;48.552;9.380;2023-02-18T00:23:19;11.80;79.80
62464;SHT31;48512;48.552;9.380;2023-02-18T00:25:45;11.77;80.02
62464;SHT31;48512;48.552;9.380;2023-02-18T00:28:10;11.82;79.69
62464;SHT31;48512;48.552;9.380;2023-02-18T00:30:42;11.87;79.49
62464;SHT31;48512;48.552;9.380;2023-02-18T00:33:08;11.67;80.24
62464;SHT31;48512;48.552;9.380;2023-02-18T00:35:33;11.65;80.53
62464;SHT31;48512;48.552;9.380;2023-02-18T00:37:59;11.75;79.59
62464;SHT31;48512;48.552;9.380;2023-02-18T00:40:24;11.82;79.55
62464;SHT31;48512;48.552;9.380;2023-02-18T00:42:50;11.73;79.83
62464;SHT31;48512;48.552;9.380;2023-02-18T00:45:15;11.66;80.03
62464;SHT31;48512;48.552;9.380;2023-02-18T00:47:41;11.73;80.00
62464;SHT31;48512;48.552;9.380;2023-02-18T00:50:07;11.69;79.96
62464;SHT31;48512;48.552;9.380;2023-02-18T00:52:32;11.76;79.64
62464;SHT31;48512;48.552;9.380;2023-02-18T00:54:58;11.66;79.92
62464;SHT31;48512;48.552;9.380;2023-02-18T00:57:23;11.66;79.86
62464;SHT31;48512;48.552;9.380;2023-02-18T00:59:49;11.72;79.31
62464;SHT31;48512;48.552;9.380;2023-02-18T01:02:14;11.79;79.69
62464;SHT31;48512;48.552;9.380;2023-02-18T01:04:40;11.82;79.65
62464;SHT31;48512;48.552;9.380;2023-02-18T01:07:05;11.80;79.42
62464;SHT31;48512;48.552;9.380;2023-02-18T01:09:31;11.77;79.78
62464;SHT31;48512;48.552;9.380;2023-02-18T01:11:56;11.84;79.46
62464;SHT31;48512;48.552;9.380;2023-02-18T01:14:21;11.83;79.54
62464;SHT31;48512;48.552;9.380;2023-02-18T01:16:47;11.87;79.06
62464;SHT31;48512;48.552;9.380;2023-02-18T01:19:12;11.83;79.06
62464;SHT31;48512;48.552;9.380;2023-02-18T01:21:37;11.70;79.67
62464;SHT31;48512;48.552;9.380;2023-02-18T01:24:03;11.67;79.49
62464;SHT31;48512;48.552;9.380;2023-02-18T01:26:30;11.73;79.01
62464;SHT31;48512;48.552;9.380;2023-02-18T01:28:55;11.73;79.04
62464;SHT31;48512;48.552;9.380;2023-02-18T01:31:21;11.67;78.69
62464;SHT31;48512;48.552;9.380;2023-02-18T01:33:46;11.89;77.94
62464;SHT31;48512;48.552;9.380;2023-02-18T01:36:11;11.73;78.31
62464;SHT31;48512;48.552;9.380;2023-02-18T01:38:37;11.67;78.76
62464;SHT31;48512;48.552;9.380;2023-02-18T01:41:03;11.75;78.24
62464;SHT31;48512;48.552;9.380;2023-02-18T01:43:29;11.80;77.63
62464;SHT31;48512;48.552;9.380;2023-02-18T01:46:11;11.94;77.42
62464;SHT31;48512;48.552;9.380;2023-02-18T01:49:20;11.69;78.53
62464;SHT31;48512;48.552;9.380;2023-02-18T01:51:45;11.83;77.52
62464;SHT31;48512;48.552;9.380;2023-02-18T01:54:37;11.62;78.69
62464;SHT31;48512;48.552;9.380;2023-02-18T01:57:08;11.76;78.39
62464;SHT31;48512;48.552;9.380;2023-02-18T01:59:44;11.70;78.41
62464;SHT31;48512;48.552;9.380;2023-02-18T02:02:13;11.70;78.58
62464;SHT31;48512;48.552;9.380;2023-02-18T02:04:40;11.87;78.06
62464;SHT31;48512;48.552;9.380;2023-02-18T02:07:05;11.80;78.06
62464;SHT31;48512;48.552;9.380;2023-02-18T02:09:33;11.94;77.88
62464;SHT31;48512;48.552;9.380;2023-02-18T02:40:28;11.89;76.19
62464;SHT31;48512;48.552;9.380;2023-02-18T02:45:51;11.91;76.38
62464;SHT31;48512;48.552;9.380;2023-02-18T02:51:06;11.83;76.35
62464;SHT31;48512;48.552;9.380;2023-02-18T02:53:35;11.90;76.30
62464;SHT31;48512;48.552;9.380;2023-02-18T02:56:01;11.75;76.90
62464;SHT31;48512;48.552;9.380;2023-02-18T02:58:26;11.91;76.35
62464;SHT31;48512;48.552;9.380;2023-02-18T03:09:23;11.87;76.39
62464;SHT31;48512;48.552;9.380;2023-02-18T03:15:42;11.66;77.68
62464;SHT31;48512;48.552;9.380;2023-02-18T03:20:52;11.63;77.16
62464;SHT31;48512;48.552;9.380;2023-02-18T03:23:24;11.79;76.43
62464;SHT31;48512;48.552;9.380;2023-02-18T03:25:52;11.76;76.61
62464;SHT31;48512;48.552;9.380;2023-02-18T03:28:19;11.80;76.00
62464;SHT31;48512;48.552;9.380;2023-02-18T03:30:50;11.76;76.34
62464;SHT31;48512;48.552;9.380;2023-02-18T03:33:23;11.76;76.24
62464;SHT31;48512;48.552;9.380;2023-02-18T03:35:50;11.83;75.92
62464;SHT31;48512;48.552;9.380;2023-02-18T03:38:28;11.80;75.91
62464;SHT31;48512;48.552;9.380;2023-02-18T03:40:56;11.80;75.73
62464;SHT31;48512;48.552;9.380;2023-02-18T03:43:22;11.89;75.52
62464;SHT31;48512;48.552;9.380;2023-02-18T03:45:47;11.79;75.43
62464;SHT31;48512;48.552;9.380;2023-02-18T03:48:13;11.98;74.80
62464;SHT31;48512;48.552;9.380;2023-02-18T03:50:38;11.89;75.17
62464;SHT31;48512;48.552;9.380;2023-02-18T03:53:04;11.90;75.03
62464;SHT31;48512;48.552;9.380;2023-02-18T03:55:29;11.91;75.17
62464;SHT31;48512;48.552;9.380;2023-02-18T03:57:54;11.83;75.21
62464;SHT31;48512;48.552;9.380;2023-02-18T04:00:20;11.77;75.48
62464;SHT31;48512;48.552;9.380;2023-02-18T04:02:45;11.75;75.98
62464;SHT31;48512;48.552;9.380;2023-02-18T04:05:11;11.79;75.89
62464;SHT31;48512;48.552;9.380;2023-02-18T04:07:36;11.70;76.02
62464;SHT31;48512;48.552;9.380;2023-02-18T04:10:03;11.75;75.98
62464;SHT31;48512;48.552;9.380;2023-02-18T04:12:29;11.63;76.33
62464;SHT31;48512;48.552;9.380;2023-02-18T04:14:54;11.72;76.16
62464;SHT31;48512;48.552;9.380;2023-02-18T04:17:19;11.66;76.02
62464;SHT31;48512;48.552;9.380;2023-02-18T04:19:45;11.82;75.24
62464;SHT31;48512;48.552;9.380;2023-02-18T04:22:10;11.72;75.50
62464;SHT31;48512;48.552;9.380;2023-02-18T04:24:36;11.86;75.20
62464;SHT31;48512;48.552;9.380;2023-02-18T04:27:01;11.56;76.13
62464;SHT31;48512;48.552;9.380;2023-02-18T04:29:27;11.54;76.14
62464;SHT31;48512;48.552;9.380;2023-02-18T04:31:52;11.65;75.62
62464;SHT31;48512;48.552;9.380;2023-02-18T04:34:17;11.48;76.14
62464;SHT31;48512;48.552;9.380;2023-02-18T04:36:43;11.38;76.59
62464;SHT31;48512;48.552;9.380;2023-02-18T04:39:08;11.39;76.48
62464;SHT31;48512;48.552;9.380;2023-02-18T04:41:33;11.43;76.38
62464;SHT31;48512;48.552;9.380;2023-02-18T04:43:59;11.46;76.05
62464;SHT31;48512;48.552;9.380;2023-02-18T04:46:24;11.39;76.62
62464;SHT31;48512;48.552;9.380;2023-02-18T04:48:50;11.32;76.67
62464;SHT31;48512;48.552;9.380;2023-02-18T04:51:15;11.18;77.35
62464;SHT31;48512;48.552;9.380;2023-02-18T04:53:40;11.29;77.21
62464;SHT31;48512;48.552;9.380;2023-02-18T04:56:06;11.31;77.01
62464;SHT31;48512;48.552;9.380;2023-02-18T04:58:31;11.42;77.01
62464;SHT31;48512;48.552;9.380;2023-02-18T05:00:59;11.34;77.37
62464;SHT31;48512;48.552;9.380;2023-02-18T05:03:24;11.15;77.82
62464;SHT31;48512;48.552;9.380;2023-02-18T05:05:50;11.38;77.29
62464;SHT31;48512;48.552;9.380;2023-02-18T05:08:15;11.27;77.68
62464;SHT31;48512;48.552;9.380;2023-02-18T05:10:40;11.19;77.88
62464;SHT31;48512;48.552;9.380;2023-02-18T05:13:06;11.29;77.56
62464;SHT31;48512;48.552;9.380;2023-02-18T05:15:31;11.32;77.65
62464;SHT31;48512;48.552;9.380;2023-02-18T05:17:57;11.31;77.88
62464;SHT31;48512;48.552;9.380;2023-02-18T05:20:22;11.27;77.79
62464;SHT31;48512;48.552;9.380;2023-02-18T05:22:48;11.29;77.60
62464;SHT31;48512;48.552;9.380;2023-02-18T05:25:13;11.29;77.50
62464;SHT31;48512;48.552;9.380;2023-02-18T05:27:39;11.42;77.49
62464;SHT31;48512;48.552;9.380;2023-02-18T05:30:05;11.42;77.20
62464;SHT31;48512;48.552;9.380;2023-02-18T05:32:31;11.28;77.67
62464;SHT31;48512;48.552;9.380;2023-02-18T05:34:56;11.38;77.55
62464;SHT31;48512;48.552;9.380;2023-02-18T05:37:22;11.42;77.02
62464;SHT31;48512;48.552;9.380;2023-02-18T05:39:47;11.36;77.41
62464;SHT31;48512;48.552;9.380;2023-02-18T05:42:13;11.54;77.12
62464;SHT31;48512;48.552;9.380;2023-02-18T05:44:38;11.66;76.45
62464;SHT31;48512;48.552;9.380;2023-02-18T05:47:09;11.46;77.27
62464;SHT31;48512;48.552;9.380;2023-02-18T05:49:36;11.45;77.31
62464;SHT31;48512;48.552;9.380;2023-02-18T05:52:02;11.49;77.24
62464;SHT31;48512;48.552;9.380;2023-02-18T05:54:28;11.62;76.67
62464;SHT31;48512;48.552;9.380;2023-02-18T05:56:53;11.48;77.22
62464;SHT31;48512;48.552;9.380;2023-02-18T05:59:19;11.36;77.58
62464;SHT31;48512;48.552;9.380;2023-02-18T06:01:45;11.40;77.46
62464;SHT31;48512;48.552;9.380;2023-02-18T06:04:11;11.51;77.02
62464;SHT31;48512;48.552;9.380;2023-02-18T06:06:37;11.63;76.64
62464;SHT31;48512;48.552;9.380;2023-02-18T06:09:03;11.72;76.22
62464;SHT31;48512;48.552;9.380;2023-02-18T06:11:29;11.66;76.56
62464;SHT31;48512;48.552;9.380;2023-02-18T06:13:54;11.66;76.24
62464;SHT31;48512;48.552;9.380;2023-02-18T06:16:19;11.55;76.61
62464;SHT31;48512;48.552;9.380;2023-02-18T06:18:45;11.76;76.06
62464;SHT31;48512;48.552;9.380;2023-02-18T06:21:10;11.69;76.33
62464;SHT31;48512;48.552;9.380;2023-02-18T06:23:35;11.76;75.87
62464;SHT31;48512;48.552;9.380;2023-02-18T06:26:01;11.73;76.36
62464;SHT31;48512;48.552;9.380;2023-02-18T06:28:26;11.75;76.01
62464;SHT31;48512;48.552;9.380;2023-02-18T06:30:52;11.65;76.65
62464;SHT31;48512;48.552;9.380;2023-02-18T06:33:17;11.70;76.46
62464;SHT31;48512;48.552;9.380;2023-02-18T06:35:55;11.56;77.04
62464;SHT31;48512;48.552;9.380;2023-02-18T06:38:21;11.77;76.36
62464;SHT31;48512;48.552;9.380;2023-02-18T06:40:47;11.66;76.74
62464;SHT31;48512;48.552;9.380;2023-02-18T06:43:12;11.51;77.54
62464;SHT31;48512;48.552;9.380;2023-02-18T06:45:38;11.55;77.13
62464;SHT31;48512;48.552;9.380;2023-02-18T06:48:04;11.79;76.23
62464;SHT31;48512;48.552;9.380;2023-02-18T06:50:30;11.77;76.23
62464;SHT31;48512;48.552;9.380;2023-02-18T06:52:55;11.83;76.15
62464;SHT31;48512;48.552;9.380;2023-02-18T06:55:21;11.83;76.15
62464;SHT31;48512;48.552;9.380;2023-02-18T06:57:47;11.73;76.90
62464;SHT31;48512;48.552;9.380;2023-02-18T07:00:12;11.87;76.22
62464;SHT31;48512;48.552;9.380;2023-02-18T07:02:38;11.84;76.32
62464;SHT31;48512;48.552;9.380;2023-02-18T07:05:04;11.75;76.71
62464;SHT31;48512;48.552;9.380;2023-02-18T07:07:30;11.65;77.03
62464;SHT31;48512;48.552;9.380;2023-02-18T07:09:55;11.75;76.99
62464;SHT31;48512;48.552;9.380;2023-02-18T07:12:21;11.84;76.44
62464;SHT31;48512;48.552;9.380;2023-02-18T07:14:46;11.93;76.13
62464;SHT31;48512;48.552;9.380;2023-02-18T07:17:12;11.82;76.39
62464;SHT31;48512;48.552;9.380;2023-02-18T07:19:38;11.83;76.71
62464;SHT31;48512;48.552;9.380;2023-02-18T07:22:03;11.94;75.87
62464;SHT31;48512;48.552;9.380;2023-02-18T07:24:29;11.93;76.03
62464;SHT31;48512;48.552;9.380;2023-02-18T07:26:54;11.83;76.35
62464;SHT31;48512;48.552;9.380;2023-02-18T07:29:20;11.89;76.73
62464;SHT31;48512;48.552;9.380;2023-02-18T07:31:45;11.89;76.82
62464;SHT31;48512;48.552;9.380;2023-02-18T07:34:11;11.80;77.03
62464;SHT31;48512;48.552;9.380;2023-02-18T07:36:36;11.90;76.79
62464;SHT31;48512;48.552;9.380;2023-02-18T07:39:02;11.90;76.23
62464;SHT31;48512;48.552;9.380;2023-02-18T07:41:28;11.91;76.22
62464;SHT31;48512;48.552;9.380;2023-02-18T07:43:54;11.89;76.47
62464;SHT31;48512;48.552;9.380;2023-02-18T07:46:19;11.98;75.63
62464;SHT31;48512;48.552;9.380;2023-02-18T07:48:45;11.94;76.00
62464;SHT31;48512;48.552;9.380;2023-02-18T07:51:11;12.05;75.54
62464;SHT31;48512;48.552;9.380;2023-02-18T07:53:37;12.05;75.32
62464;SHT31;48512;48.552;9.380;2023-02-18T07:56:04;12.14;75.16
62464;SHT31;48512;48.552;9.380;2023-02-18T07:58:32;12.13;75.21
62464;SHT31;48512;48.552;9.380;2023-02-18T08:00:57;12.28;74.36
62464;SHT31;48512;48.552;9.380;2023-02-18T08:03:29;12.42;73.73
62464;SHT31;48512;48.552;9.380;2023-02-18T08:05:55;12.25;74.40
62464;SHT31;48512;48.552;9.380;2023-02-18T08:08:24;12.35;74.21
62464;SHT31;48512;48.552;9.380;2023-02-18T08:10:51;12.41;73.82
62464;SHT31;48512;48.552;9.380;2023-02-18T08:13:17;12.37;74.52
62464;SHT31;48512;48.552;9.380;2023-02-18T08:15:42;12.72;72.38
62464;SHT31;48512;48.552;9.380;2023-02-18T08:18:14;13.44;72.00
62464;SHT31;48512;48.552;9.380;2023-02-18T08:20:40;13.04;71.25
62464;SHT31;48512;48.552;9.380;2023-02-18T08:23:05;13.14;71.65
62464;SHT31;48512;48.552;9.380;2023-02-18T08:25:31;13.06;71.26
62464;SHT31;48512;48.552;9.380;2023-02-18T08:27:57;12.92;71.27
62464;SHT31;48512;48.552;9.380;2023-02-18T08:30:22;12.79;72.12
62464;SHT31;48512;48.552;9.380;2023-02-18T08:32:48;12.63;72.29
62464;SHT31;48512;48.552;9.380;2023-02-18T08:35:13;12.69;72.41
62464;SHT31;48512;48.552;9.380;2023-02-18T08:37:39;12.69;72.25
62464;SHT31;48512;48.552;9.380;2023-02-18T08:40:05;12.62;72.01
62464;SHT31;48512;48.552;9.380;2023-02-18T08:42:30;12.83;71.53
62464;SHT31;48512;48.552;9.380;2023-02-18T08:44:56;12.70;71.71
62464;SHT31;48512;48.552;9.380;2023-02-18T08:47:21;12.69;71.88
62464;SHT31;48512;48.552;9.380;2023-02-18T08:49:47;12.76;71.60
62464;SHT31;48512;48.552;9.380;2023-02-18T08:52:12;12.85;70.91
62464;SHT31;48512;48.552;9.380;2023-02-18T08:54:38;12.69;71.25
62464;SHT31;48512;48.552;9.380;2023-02-18T08:57:03;12.69;71.24
62464;SHT31;48512;48.552;9.380;2023-02-18T08:59:29;12.72;71.47
62464;SHT31;48512;48.552;9.380;2023-02-18T09:01:54;12.61;71.68
62464;SHT31;48512;48.552;9.380;2023-02-18T09:04:20;12.59;71.60
62464;SHT31;48512;48.552;9.380;2023-02-18T09:06:46;12.63;71.99
62464;SHT31;48512;48.552;9.380;2023-02-18T09:09:12;12.69;71.21
62464;SHT31;48512;48.552;9.380;2023-02-18T09:11:37;12.72;71.51
62464;SHT31;48512;48.552;9.380;2023-02-18T09:14:03;12.76;71.54
62464;SHT31;48512;48.552;9.380;2023-02-18T09:16:28;12.86;71.17
62464;SHT31;48512;48.552;9.380;2023-02-18T09:18:55;12.72;71.49
62464;SHT31;48512;48.552;9.380;2023-02-18T09:21:21;12.76;71.35
62464;SHT31;48512;48.552;9.380;2023-02-18T09:23:48;12.76;71.57
62464;SHT31;48512;48.552;9.380;2023-02-18T09:26:15;12.70;71.47
62464;SHT31;48512;48.552;9.380;2023-02-18T09:28:42;12.63;72.26
62464;SHT31;48512;48.552;9.380;2023-02-18T09:31:10;13.07;71.34
62464;SHT31;48512;48.552;9.380;2023-02-18T09:33:42;12.96;71.26
62464;SHT31;48512;48.552;9.380;2023-02-18T09:36:09;12.82;71.78
62464;SHT31;48512;48.552;9.380;2023-02-18T09:38:34;13.18;72.26
62464;SHT31;48512;48.552;9.380;2023-02-18T09:41:02;13.50;70.33
62464;SHT31;48512;48.552;9.380;2023-02-18T09:43:39;13.41;70.06
62464;SHT31;48512;48.552;9.380;2023-02-18T09:46:20;13.57;69.48
62464;SHT31;48512;48.552;9.380;2023-02-18T09:48:47;13.76;68.78
62464;SHT31;48512;48.552;9.380;2023-02-18T09:51:16;14.12;68.56
62464;SHT31;48512;48.552;9.380;2023-02-18T09:53:43;14.44;67.91
62464;SHT31;48512;48.552;9.380;2023-02-18T09:56:13;14.23;67.54
62464;SHT31;48512;48.552;9.380;2023-02-18T09:58:40;14.12;67.20
62464;SHT31;48512;48.552;9.380;2023-02-18T10:01:29;13.81;68.45
62464;SHT31;48512;48.552;9.380;2023-02-18T10:04:05;13.45;69.33
62464;SHT31;48512;48.552;9.380;2023-02-18T10:06:33;13.37;70.09
62464;SHT31;48512;48.552;9.380;2023-02-18T10:09:02;13.31;69.95
62464;SHT31;48512;48.552;9.380;2023-02-18T10:11:40;13.14;70.53
62464;SHT31;48512;48.552;9.380;2023-02-18T10:14:11;13.09;71.00
62464;SHT31;48512;48.552;9.380;2023-02-18T10:16:37;13.17;71.15
62464;SHT31;48512;48.552;9.380;2023-02-18T10:19:38;13.23;70.57
62464;SHT31;48512;48.552;9.380;2023-02-18T10:22:09;13.34;70.67
62464;SHT31;48512;48.552;9.380;2023-02-18T10:24:39;13.34;70.22
62464;SHT31;48512;48.552;9.380;2023-02-18T10:27:07;13.21;70.83
62464;SHT31;48512;48.552;9.380;2023-02-18T10:29:34;13.26;70.90
62464;SHT31;48512;48.552;9.380;2023-02-18T10:42:31;13.58;70.29
62464;SHT31;48512;48.552;9.380;2023-02-18T10:45:22;13.61;70.71
62464;SHT31;48512;48.552;9.380;2023-02-18T10:50:44;13.55;70.44
62464;SHT31;48512;48.552;9.380;2023-02-18T10:53:11;13.44;70.29
62464;SHT31;48512;48.552;9.380;2023-02-18T10:55:45;13.44;70.37
62464;SHT31;48512;48.552;9.380;2023-02-18T11:01:04;13.44;70.33
62464;SHT31;48512;48.552;9.380;2023-02-18T11:03:50;13.47;70.41
62464;SHT31;48512;48.552;9.380;2023-02-18T11:06:23;13.43;70.58
62464;SHT31;48512;48.552;9.380;2023-02-18T11:08:49;13.43;69.96
62464;SHT31;48512;48.552;9.380;2023-02-18T11:11:20;13.44;70.29
62464;SHT31;48512;48.552;9.380;2023-02-18T11:13:55;13.48;70.04
62464;SHT31;48512;48.552;9.380;2023-02-18T11:16:23;13.37;70.19
62464;SHT31;48512;48.552;9.380;2023-02-18T11:18:49;13.50;70.17
62464;SHT31;48512;48.552;9.380;2023-02-18T11:23:48;13.58;69.78
62464;SHT31;48512;48.552;9.380;2023-02-18T11:26:15;13.57;70.08
62464;SHT31;48512;48.552;9.380;2023-02-18T11:31:15;13.71;69.53
62464;SHT31;48512;48.552;9.380;2023-02-18T11:33:49;13.57;69.50
62464;SHT31;48512;48.552;9.380;2023-02-18T11:41:16;13.47;69.31
62464;SHT31;48512;48.552;9.380;2023-02-18T11:43:47;13.45;69.88
62464;SHT31;48512;48.552;9.380;2023-02-18T11:46:22;13.55;69.35
62464;SHT31;48512;48.552;9.380;2023-02-18T11:48:49;13.65;69.23
62464;SHT31;48512;48.552;9.380;2023-02-18T11:53:57;13.85;68.60
62464;SHT31;48512;48.552;9.380;2023-02-18T11:56:25;14.06;67.74
62464;SHT31;48512;48.552;9.380;2023-02-18T11:58:50;14.01;67.57
62464;SHT31;48512;48.552;9.380;2023-02-18T12:04:05;14.05;67.61
62464;SHT31;48512;48.552;9.380;2023-02-18T12:09:08;14.12;67.84
62464;SHT31;48512;48.552;9.380;2023-02-18T12:11:42;14.09;67.47
62464;SHT31;48512;48.552;9.380;2023-02-18T12:14:15;13.87;67.72
62464;SHT31;48512;48.552;9.380;2023-02-18T12:44:40;14.21;66.10
62464;SHT31;48512;48.552;9.380;2023-02-18T12:58:44;14.60;64.71
62464;SHT31;48512;48.552;9.380;2023-02-18T13:01:38;14.44;64.90
62464;SHT31;48512;48.552;9.380;2023-02-18T13:04:18;14.56;64.62
62464;SHT31;48512;48.552;9.380;2023-02-18T13:14:30;14.50;64.59
62464;SHT31;48512;48.552;9.380;2023-02-18T13:16:58;14.48;64.28
62464;SHT31;48512;48.552;9.380;2023-02-18T13:19:35;14.42;64.69
62464;SHT31;48512;48.552;9.380;2023-02-18T13:22:04;14.63;64.12
62464;SHT31;48512;48.552;9.380;2023-02-18T13:24:34;14.61;64.06
62464;SHT31;48512;48.552;9.380;2023-02-18T13:27:25;14.40;64.49
62464;SHT31;48512;48.552;9.380;2023-02-18T13:32:40;14.47;64.13
62464;SHT31;48512;48.552;9.380;2023-02-18T13:40:27;14.48;63.81
62464;SHT31;48512;48.552;9.380;2023-02-18T13:46:20;14.40;64.62
62464;SHT31;48512;48.552;9.380;2023-02-18T13:48:50;14.41;64.62
62464;SHT31;48512;48.552;9.380;2023-02-18T13:51:26;14.33;65.04
62464;SHT31;48512;48.552;9.380;2023-02-18T13:54:28;14.37;65.39
62464;SHT31;48512;48.552;9.380;2023-02-18T13:57:14;14.44;64.57
62464;SHT31;48512;48.552;9.380;2023-02-18T13:59:50;14.40;64.34
62464;SHT31;48512;48.552;9.380;2023-02-18T14:09:42;14.36;64.54
62464;SHT31;48512;48.552;9.380;2023-02-18T14:31:41;14.38;63.43
62464;SHT31;48512;48.552;9.380;2023-02-18T14:45:14;14.13;63.77
62464;SHT31;48512;48.552;9.380;2023-02-18T14:47:57;14.48;62.30
62464;SHT31;48512;48.552;9.380;2023-02-18T14:50:30;14.45;62.22
62464;SHT31;48512;48.552;9.380;2023-02-18T14:52:58;14.45;62.16
62464;SHT31;48512;48.552;9.380;2023-02-18T14:55:32;14.50;62.56
62464;SHT31;48512;48.552;9.380;2023-02-18T14:58:05;14.69;61.68
62464;SHT31;48512;48.552;9.380;2023-02-18T15:00:34;14.56;62.18
62464;SHT31;48512;48.552;9.380;2023-02-18T15:03:01;14.58;62.05
62464;SHT31;48512;48.552;9.380;2023-02-18T15:05:30;14.63;61.43
62464;SHT31;48512;48.552;9.380;2023-02-18T15:08:06;14.60;61.41
62464;SHT31;48512;48.552;9.380;2023-02-18T15:10:38;14.56;61.10
62464;SHT31;48512;48.552;9.380;2023-02-18T15:13:08;14.56;61.34
62464;SHT31;48512;48.552;9.380;2023-02-18T15:15:37;14.54;61.76
62464;SHT31;48512;48.552;9.380;2023-02-18T15:18:03;14.47;62.45
62464;SHT31;48512;48.552;9.380;2023-02-18T15:20:32;14.56;63.00
62464;SHT31;48512;48.552;9.380;2023-02-18T15:22:59;14.45;63.42
62464;SHT31;48512;48.552;9.380;2023-02-18T15:25:24;14.26;64.28
62464;SHT31;48512;48.552;9.380;2023-02-18T15:27:51;14.50;63.41
62464;SHT31;48512;48.552;9.380;2023-02-18T15:30:23;14.50;63.60
62464;SHT31;48512;48.552;9.380;2023-02-18T15:32:51;14.42;64.31
62464;SHT31;48512;48.552;9.380;2023-02-18T15:35:18;14.41;64.34
62464;SHT31;48512;48.552;9.380;2023-02-18T15:37:46;14.41;64.88
62464;SHT31;48512;48.552;9.380;2023-02-18T15:40:16;14.26;64.83
62464;SHT31;48512;48.552;9.380;2023-02-18T15:42:45;14.13;65.56
62464;SHT31;48512;48.552;9.380;2023-02-18T15:45:24;14.09;66.03
62464;SHT31;48512;48.552;9.380;2023-02-18T15:47:55;14.30;64.90
62464;SHT31;48512;48.552;9.380;2023-02-18T15:50:25;14.17;65.66
62464;SHT31;48512;48.552;9.380;2023-02-18T15:52:53;14.16;65.39
62464;SHT31;48512;48.552;9.380;2023-02-18T15:55:33;14.06;65.63
62464;SHT31;48512;48.552;9.380;2023-02-18T15:58:04;13.95;65.51
62464;SHT31;48512;48.552;9.380;2023-02-18T16:00:35;14.14;64.51
62464;SHT31;48512;48.552;9.380;2023-02-18T16:05:29;13.93;65.21
62464;SHT31;48512;48.552;9.380;2023-02-18T16:08:00;13.90;65.20
62464;SHT31;48512;48.552;9.380;2023-02-18T16:13:01;13.87;65.31
62464;SHT31;48512;48.552;9.380;2023-02-18T16:15:36;13.85;65.20
62464;SHT31;48512;48.552;9.380;2023-02-18T16:18:03;13.76;65.39
62464;SHT31;48512;48.552;9.380;2023-02-18T16:20:31;13.68;64.66
62464;SHT31;48512;48.552;9.380;2023-02-18T16:23:02;13.72;64.62
62464;SHT31;48512;48.552;9.380;2023-02-18T16:28:30;13.72;63.80
62464;SHT31;48512;48.552;9.380;2023-02-18T16:30:57;13.66;63.70
62464;SHT31;48512;48.552;9.380;2023-02-18T16:33:23;13.53;63.78
62464;SHT31;48512;48.552;9.380;2023-02-18T16:35:48;13.69;63.28
62464;SHT31;48512;48.552;9.380;2023-02-18T16:38:16;13.44;63.95
62464;SHT31;48512;48.552;9.380;2023-02-18T16:40:42;13.50;63.33
62464;SHT31;48512;48.552;9.380;2023-02-18T16:43:27;13.34;64.04
62464;SHT31;48512;48.552;9.380;2023-02-18T16:45:58;13.31;64.24
62464;SHT31;48512;48.552;9.380;2023-02-18T16:50:59;13.36;64.22
62464;SHT31;48512;48.552;9.380;2023-02-18T16:53:25;13.38;64.30
62464;SHT31;48512;48.552;9.380;2023-02-18T16:55:50;13.44;64.26
62464;SHT31;48512;48.552;9.380;2023-02-18T16:58:16;13.24;64.92
62464;SHT31;48512;48.552;9.380;2023-02-18T17:00:43;13.16;65.45
62464;SHT31;48512;48.552;9.380;2023-02-18T17:03:10;13.11;65.80
62464;SHT31;48512;48.552;9.380;2023-02-18T17:05:36;13.07;65.80
62464;SHT31;48512;48.552;9.380;2023-02-18T17:08:24;13.13;65.98
62464;SHT31;48512;48.552;9.380;2023-02-18T17:10:55;13.00;66.14
62464;SHT31;48512;48.552;9.380;2023-02-18T17:13:23;13.00;66.70
62464;SHT31;48512;48.552;9.380;2023-02-18T17:15:51;13.06;66.15
62464;SHT31;48512;48.552;9.380;2023-02-18T17:18:17;13.13;66.16
62464;SHT31;48512;48.552;9.380;2023-02-18T17:20:43;13.21;65.98
62464;SHT31;48512;48.552;9.380;2023-02-18T17:23:16;13.16;66.44
62464;SHT31;48512;48.552;9.380;2023-02-18T17:25:45;13.10;67.02
62464;SHT31;48512;48.552;9.380;2023-02-18T17:28:12;13.00;67.56
62464;SHT31;48512;48.552;9.380;2023-02-18T17:30:39;13.13;67.79
62464;SHT31;48512;48.552;9.380;2023-02-18T17:33:06;12.96;68.63
62464;SHT31;48512;48.552;9.380;2023-02-18T17:35:32;12.97;68.78
62464;SHT31;48512;48.552;9.380;2023-02-18T17:37:58;12.92;68.83
62464;SHT31;48512;48.552;9.380;2023-02-18T17:40:26;12.90;69.19
62464;SHT31;48512;48.552;9.380;2023-02-18T17:42:53;12.73;69.72
62464;SHT31;48512;48.552;9.380;2023-02-18T17:47:52;13.13;68.85
62464;SHT31;48512;48.552;9.380;2023-02-18T17:50:17;12.78;69.27
62464;SHT31;48512;48.552;9.380;2023-02-18T17:52:43;12.83;69.40
62464;SHT31;48512;48.552;9.380;2023-02-18T17:55:26;12.90;69.02
62464;SHT31;48512;48.552;9.380;2023-02-18T17:57:52;12.86;69.34
62464;SHT31;48512;48.552;9.380;2023-02-18T18:02:46;13.03;69.44
62464;SHT31;48512;48.552;9.380;2023-02-18T18:05:21;12.89;69.82
62464;SHT31;48512;48.552;9.380;2023-02-18T18:07:47;12.80;70.08
62464;SHT31;48512;48.552;9.380;2023-02-18T18:10:14;12.75;70.27
62464;SHT31;48512;48.552;9.380;2023-02-18T18:12:40;12.69;70.73
62464;SHT31;48512;48.552;9.380;2023-02-18T18:15:28;12.85;70.17
62464;SHT31;48512;48.552;9.380;2023-02-18T18:17:55;12.75;70.15
62464;SHT31;48512;48.552;9.380;2023-02-18T18:20:22;12.85;69.96
62464;SHT31;48512;48.552;9.380;2023-02-18T18:22:49;12.66;70.53
62464;SHT31;48512;48.552;9.380;2023-02-18T18:27:40;12.83;70.04
62464;SHT31;48512;48.552;9.380;2023-02-18T18:30:06;12.63;70.64
62464;SHT31;48512;48.552;9.380;2023-02-18T18:32:31;12.62;70.91
62464;SHT31;48512;48.552;9.380;2023-02-18T18:34:57;12.46;71.16
62464;SHT31;48512;48.552;9.380;2023-02-18T18:37:22;12.55;70.88
62464;SHT31;48512;48.552;9.380;2023-02-18T18:39:47;12.66;70.46
62464;SHT31;48512;48.552;9.380;2023-02-18T18:42:13;12.56;70.73
62464;SHT31;48512;48.552;9.380;2023-02-18T18:44:38;12.76;70.44
62464;SHT31;48512;48.552;9.380;2023-02-18T18:47:04;12.70;70.34
62464;SHT31;48512;48.552;9.380;2023-02-18T18:49:29;12.63;70.36
62464;SHT31;48512;48.552;9.380;2023-02-18T18:51:55;12.65;70.47
62464;SHT31;48512;48.552;9.380;2023-02-18T18:54:20;12.73;70.00